Meath Environmental Platform

Observations for Trim Market St

Time AQI Temp °C Hum % Pres Pa CO μg/m³ H₂S μg/m³ NO μg/m³ NO₂ μg/m³ O₃ μg/m³ SO₂ μg/m³ PM1 μg/m³ PM2.5 μg/m³ PM10 μg/m³
Monday 24 August 2026
07:23 1 9.1 80 19,057 0.72 0 12.35 16.93 10.31 0 5.7 6.84 10.94
07:22 1 9.1 80 19,320 0.71 0 14.6 18.77 9.03 0 5.7 6.36 10.94
07:21 1 9 80 19,649 0.75 0 14.19 19.86 6.18 0 5.7 6.84 12.08
07:16 1 8.8 80 21,042 0.73 0 14.57 19.67 3.76 0 4.99 7.31 12.08
07:09 1 8.6 80 21,997 0.72 0 13.25 18.58 2.94 0 4.28 5.89 9.8
07:05 1 8.6 80 23,075 0.73 0 20.14 21.61 1.44 0 4.99 7.3 12.64
07:04 1 8.5 80 23,400 0.74 0 16.95 21.05 0.42 0 4.28 6.36 10.94
07:00 1 8.5 80 24,026 0.72 0 36.38 19.86 1.94 0 3.56 5.89 9.8
06:59 1 8.4 80 24,314 0.74 0 36.81 21.08 0.15 0 3.56 6.84 12.08
06:58 1 8.5 80 24,569 0.77 0 36.92 21.33 0.64 0 4.99 6.36 12.08
06:57 1 8.4 80 24,847 0.77 0 32.7 21.7 0 0 3.56 5.42 9.8
06:56 1 8.4 80 25,138 0.76 0 33.78 23.87 0 0 4.99 7.77 12.07
06:55 1 8.4 80 25,466 0.75 0 24.03 22.7 0 0 4.99 6.36 10.94
06:54 1 8.4 80 25,721 0.73 0 17.28 20.8 0.14 0 4.99 7.31 12.64
06:53 1 8.4 80 25,977 0.74 0 13.44 19.92 0.95 0 4.28 6.36 10.94
06:52 1 8.4 80 26,245 0.72 0 11.23 20.21 1.03 0 4.28 7.31 12.08
06:51 1 8.4 80 26,537 0.73 0 11.19 19.67 1.26 0 4.28 4.95 10.94
06:50 1 8.3 80 26,814 0.74 0 9.96 18.72 1.26 0 4.28 4.95 9.24
06:49 1 8.3 80 27,117 0.72 0 11.38 18.95 1.18 0 4.99 7.31 12.08
06:48 1 8.3 80 27,393 0.7 0 9.17 17.96 3.35 0 2.85 4.48 9.81